createdAt,value
2018-10-07T00:01:49.965Z,99499.09
2018-10-07T00:04:18.424Z,99501.81
2018-10-07T00:06:46.877Z,99506.84
2018-10-07T00:09:15.244Z,99503.66
2018-10-07T00:11:44.390Z,99510.72
2018-10-07T00:14:12.794Z,99510.94
2018-10-07T00:16:41.270Z,99524.88
2018-10-07T00:19:09.717Z,99550.27
2018-10-07T00:21:38.126Z,99584.58
2018-10-07T00:24:06.557Z,99645.36
2018-10-07T00:26:35.017Z,99648.75
2018-10-07T00:29:03.432Z,99666.60
2018-10-07T00:31:31.954Z,99668.89
2018-10-07T00:34:00.357Z,99680.73
2018-10-07T00:36:28.778Z,99660.70
2018-10-07T00:38:57.190Z,99654.80
2018-10-07T00:41:25.672Z,99645.19
2018-10-07T00:43:54.202Z,99623.86
2018-10-07T00:46:22.661Z,99629.53
2018-10-07T00:48:51.085Z,99608.23
2018-10-07T00:51:19.566Z,99597.59
2018-10-07T00:53:48.042Z,99588.06
2018-10-07T00:56:16.542Z,99586.52
2018-10-07T00:58:44.986Z,99582.97
2018-10-07T01:01:13.440Z,99587.61
2018-10-07T01:03:41.865Z,99595.86
2018-10-07T01:06:10.395Z,99616.61
2018-10-07T01:08:38.830Z,99631.64
2018-10-07T01:11:07.269Z,99645.32
2018-10-07T01:13:35.845Z,99654.59
2018-10-07T01:16:04.389Z,99667.15
2018-10-07T01:18:32.837Z,99688.19
2018-10-07T01:21:01.333Z,99707.89
2018-10-07T01:23:29.749Z,99705.21
2018-10-07T01:25:58.205Z,99711.76
2018-10-07T01:28:26.620Z,99710.45
2018-10-07T01:30:55.045Z,99693.83
2018-10-07T01:33:23.553Z,99676.91
2018-10-07T01:35:51.951Z,99659.20
2018-10-07T01:38:20.386Z,99639.31
2018-10-07T01:40:48.790Z,99619.17
2018-10-07T01:43:17.438Z,99605.31
2018-10-07T01:45:45.825Z,99600.38
2018-10-07T01:48:14.298Z,99622.70
2018-10-07T01:50:42.706Z,99654.27
2018-10-07T01:53:11.190Z,99656.47
2018-10-07T01:55:39.595Z,99651.09
2018-10-07T01:58:08.026Z,99648.88
2018-10-07T02:00:36.485Z,99648.56
2018-10-07T02:03:04.921Z,99652.08
2018-10-07T02:05:33.341Z,99655.44
2018-10-07T02:08:01.781Z,99642.98
2018-10-07T02:10:30.265Z,99636.42
2018-10-07T02:12:58.701Z,99633.18
2018-10-07T02:15:27.335Z,99637.80
2018-10-07T02:17:55.810Z,99634.75
2018-10-07T02:20:24.219Z,99637.20
2018-10-07T02:22:52.765Z,99647.89
2018-10-07T02:25:21.175Z,99656.05
2018-10-07T02:27:49.605Z,99654.70
2018-10-07T02:30:18.014Z,99652.25
2018-10-07T02:32:46.419Z,99659.09
2018-10-07T02:35:14.897Z,99652.64
2018-10-07T02:37:43.361Z,99641.05
2018-10-07T02:40:11.823Z,99647.89
2018-10-07T02:42:40.265Z,99644.30
2018-10-07T02:45:08.713Z,99638.50
2018-10-07T02:47:37.153Z,99642.84
2018-10-07T02:50:14.894Z,99639.87
2018-10-07T02:52:50.326Z,99627.35
2018-10-07T02:55:21.798Z,99620.58
2018-10-07T02:57:51.522Z,99610.23
2018-10-07T03:00:19.983Z,99623.35
2018-10-07T03:02:48.725Z,99639.84
2018-10-07T03:05:17.150Z,99658.71
2018-10-07T03:07:45.866Z,99666.09
2018-10-07T03:10:14.313Z,99660.39
2018-10-07T03:12:43.021Z,99668.30
2018-10-07T03:15:11.576Z,99672.68
2018-10-07T03:17:40.058Z,99674.02
2018-10-07T03:20:08.590Z,99689.06
2018-10-07T03:22:37.113Z,99690.14
2018-10-07T03:25:05.926Z,99695.39
2018-10-07T03:27:34.401Z,99703.80
2018-10-07T03:30:02.867Z,99706.50
2018-10-07T03:32:31.321Z,99701.89
2018-10-07T03:34:59.729Z,99700.84
2018-10-07T03:37:28.173Z,99697.10
2018-10-07T03:39:56.621Z,99689.48
2018-10-07T03:42:25.065Z,99689.83
2018-10-07T03:44:53.526Z,99697.97
2018-10-07T03:47:21.962Z,99706.92
2018-10-07T03:49:50.391Z,99713.98
2018-10-07T03:52:18.850Z,99718.59
2018-10-07T03:54:47.401Z,99730.02
2018-10-07T03:57:15.818Z,99746.69
2018-10-07T03:59:44.334Z,99749.62
2018-10-07T04:02:12.816Z,99750.47
2018-10-07T04:04:41.263Z,99760.81
2018-10-07T04:07:09.660Z,99767.35
2018-10-07T04:09:38.061Z,99768.70
2018-10-07T04:12:06.567Z,99772.52
2018-10-07T04:14:34.966Z,99789.13
2018-10-07T04:17:03.377Z,99788.06
2018-10-07T04:19:31.836Z,99797.05
2018-10-07T04:22:00.258Z,99798.97
2018-10-07T04:24:30.427Z,99796.77
2018-10-07T04:26:58.901Z,99800.56
2018-10-07T04:29:27.520Z,99808.48
2018-10-07T04:31:56.093Z,99808.22
2018-10-07T04:34:24.547Z,99817.20
2018-10-07T04:36:52.969Z,99821.59
2018-10-07T04:39:21.430Z,99823.48
2018-10-07T04:41:49.824Z,99825.63
2018-10-07T04:44:18.233Z,99831.64
2018-10-07T04:46:46.650Z,99838.17
2018-10-07T04:49:15.064Z,99843.64
2018-10-07T04:51:43.493Z,99842.55
2018-10-07T04:54:11.930Z,99843.64
2018-10-07T04:56:40.329Z,99845.83
2018-10-07T04:59:08.734Z,99845.84
2018-10-07T05:01:37.164Z,99849.08
2018-10-07T05:04:05.594Z,99861.33
2018-10-07T05:06:35.341Z,99871.14
2018-10-07T05:09:05.802Z,99876.88
2018-10-07T05:11:34.290Z,99885.58
2018-10-07T05:14:02.777Z,99892.16
2018-10-07T05:16:33.533Z,99900.05
2018-10-07T05:19:02.142Z,99906.87
2018-10-07T05:21:30.628Z,99915.30
2018-10-07T05:23:59.566Z,99919.96
2018-10-07T05:26:28.507Z,99922.95
2018-10-07T05:28:57.021Z,99922.41
2018-10-07T05:31:25.532Z,99927.86
2018-10-07T05:33:54.660Z,99927.02
2018-10-07T05:36:23.204Z,99926.78
2018-10-07T05:38:51.650Z,99938.47
2018-10-07T05:41:20.193Z,99936.57
2018-10-07T05:43:48.659Z,99941.49
2018-10-07T05:46:17.078Z,99942.30
2018-10-07T05:48:45.824Z,99949.95
2018-10-07T05:51:14.238Z,99951.56
2018-10-07T05:53:42.765Z,99953.77
2018-10-07T05:56:11.363Z,99951.05
2018-10-07T05:58:40.539Z,99945.07
2018-10-07T06:01:14.287Z,99948.63
2018-10-07T06:03:56.226Z,99956.06
2018-10-07T06:06:24.803Z,99962.66
2018-10-07T06:08:53.519Z,99967.86
2018-10-07T06:11:21.925Z,99977.15
2018-10-07T06:13:50.422Z,99983.42
2018-10-07T06:16:18.893Z,99979.05
2018-10-07T06:18:47.430Z,99987.80
2018-10-07T06:21:15.870Z,99992.97
2018-10-07T06:23:44.334Z,100000.06
2018-10-07T06:26:12.803Z,100000.88
2018-10-07T06:28:41.229Z,100006.58
2018-10-07T06:31:09.684Z,100021.03
2018-10-07T06:33:38.104Z,100018.02
2018-10-07T06:36:06.561Z,100018.88
2018-10-07T06:38:35.029Z,100022.12
2018-10-07T06:41:03.478Z,100025.67
2018-10-07T06:43:31.930Z,100033.02
2018-10-07T06:46:00.462Z,100033.83
2018-10-07T06:48:28.857Z,100038.20
2018-10-07T06:50:57.352Z,100041.48
2018-10-07T06:53:25.805Z,100045.52
2018-10-07T06:55:54.326Z,100062.94
2018-10-07T06:58:22.886Z,100063.26
2018-10-07T07:00:51.353Z,100071.42
2018-10-07T07:03:19.798Z,100081.21
2018-10-07T07:05:48.249Z,100082.05
2018-10-07T07:08:16.667Z,100083.09
2018-10-07T07:10:45.157Z,100096.72
2018-10-07T07:13:13.583Z,100096.96
2018-10-07T07:15:42.033Z,100112.20
2018-10-07T07:18:10.482Z,100112.14
2018-10-07T07:20:38.937Z,100118.37
2018-10-07T07:23:07.386Z,100115.08
2018-10-07T07:25:35.793Z,100128.91
2018-10-07T07:28:04.258Z,100126.98
2018-10-07T07:30:32.701Z,100134.87
2018-10-07T07:33:01.133Z,100143.85
2018-10-07T07:35:29.575Z,100146.30
2018-10-07T07:37:58.062Z,100163.63
2018-10-07T07:40:26.518Z,100166.90
2018-10-07T07:42:54.951Z,100178.52
2018-10-07T07:45:23.362Z,100188.86
2018-10-07T07:47:51.777Z,100193.98
2018-10-07T07:50:20.243Z,100204.81
2018-10-07T07:52:48.667Z,100206.67
2018-10-07T07:55:17.153Z,100219.71
2018-10-07T07:57:45.559Z,100222.23
2018-10-07T08:00:14.026Z,100229.52
2018-10-07T08:02:42.441Z,100230.67
2018-10-07T08:05:10.994Z,100240.39
2018-10-07T08:07:39.450Z,100239.56
2018-10-07T08:10:07.966Z,100246.24
2018-10-07T08:12:36.372Z,100247.04
2018-10-07T08:15:05.033Z,100246.16
2018-10-07T08:17:33.583Z,100249.17
2018-10-07T08:20:01.964Z,100254.31
2018-10-07T08:22:30.410Z,100262.15
2018-10-07T08:24:59.529Z,100273.27
2018-10-07T08:27:27.945Z,100279.83
2018-10-07T08:29:56.762Z,100282.41
2018-10-07T08:32:25.201Z,100291.34
2018-10-07T08:34:53.642Z,100283.67
2018-10-07T08:37:22.431Z,100296.48
2018-10-07T08:39:50.881Z,100290.44
2018-10-07T08:42:19.430Z,100293.12
2018-10-07T08:44:47.938Z,100290.40
2018-10-07T08:47:16.410Z,100290.70
2018-10-07T08:49:44.903Z,100292.59
2018-10-07T08:52:13.309Z,100293.45
2018-10-07T08:54:41.754Z,100304.07
2018-10-07T08:57:10.192Z,100299.47
2018-10-07T08:59:38.622Z,100299.62
2018-10-07T09:02:07.127Z,100314.59
2018-10-07T09:04:35.605Z,100311.19
2018-10-07T09:07:04.049Z,100306.02
2018-10-07T09:09:32.476Z,100300.89
2018-10-07T09:12:00.930Z,100303.36
2018-10-07T09:14:29.375Z,100305.14
2018-10-07T09:16:57.838Z,100303.06
2018-10-07T09:19:26.253Z,100311.00
2018-10-07T09:21:54.698Z,100323.50
2018-10-07T09:24:23.137Z,100322.91
2018-10-07T09:26:51.788Z,100321.02
2018-10-07T09:29:20.344Z,100322.55
2018-10-07T09:31:49.678Z,100313.31
2018-10-07T09:34:18.178Z,100313.97
2018-10-07T09:36:46.679Z,100310.30
2018-10-07T09:39:15.063Z,100325.37
2018-10-07T09:41:43.517Z,100334.20
2018-10-07T09:44:11.993Z,100339.30
2018-10-07T09:46:40.536Z,100345.25
2018-10-07T09:49:08.977Z,100349.66
2018-10-07T09:51:37.477Z,100352.11
2018-10-07T09:54:06.064Z,100358.38
2018-10-07T09:56:34.501Z,100360.95
2018-10-07T09:59:03.030Z,100362.94
2018-10-07T10:01:31.518Z,100367.86
2018-10-07T10:03:59.945Z,100372.84
2018-10-07T10:06:29.562Z,100361.27
2018-10-07T10:08:57.973Z,100347.22
2018-10-07T10:11:26.465Z,100358.98
2018-10-07T10:13:54.882Z,100354.61
2018-10-07T10:16:31.929Z,100361.78
2018-10-07T10:19:00.433Z,100372.42
2018-10-07T10:21:34.917Z,100375.16
2018-10-07T10:24:21.324Z,100390.97
2018-10-07T10:28:02.503Z,100393.44
2018-10-07T10:30:41.988Z,100395.78
2018-10-07T10:33:18.302Z,100386.47
2018-10-07T10:35:54.200Z,100399.80
2018-10-07T10:38:30.951Z,100397.91
2018-10-07T10:41:02.811Z,100402.83
2018-10-07T10:44:06.233Z,100404.70
2018-10-07T10:46:48.388Z,100402.91
2018-10-07T10:49:29.206Z,100390.66
2018-10-07T10:52:40.783Z,100391.21
2018-10-07T10:55:44.546Z,100394.54
2018-10-07T10:58:26.788Z,100392.33
2018-10-07T11:00:57.585Z,100405.16
2018-10-07T11:04:34.331Z,100407.37
2018-10-07T11:07:22.577Z,100403.53
2018-10-07T11:11:35.710Z,100400.52
2018-10-07T11:14:46.590Z,100412.52
2018-10-07T11:17:37.978Z,100414.14
2018-10-07T11:20:19.664Z,100414.97
2018-10-07T11:22:53.813Z,100419.92
2018-10-07T11:25:35.438Z,100428.38
2018-10-07T11:28:13.397Z,100435.20
2018-10-07T11:30:55.891Z,100436.56
2018-10-07T11:34:03.746Z,100429.20
2018-10-07T11:36:53.629Z,100421.83
2018-10-07T11:40:39.939Z,100428.88
2018-10-07T11:45:17.847Z,100441.92
2018-10-07T11:47:52.771Z,100440.89
2018-10-07T11:50:35.099Z,100438.73
2018-10-07T11:54:11.423Z,100441.71
2018-10-07T11:56:40.030Z,100449.53
2018-10-07T11:59:08.575Z,100452.67
2018-10-07T12:01:37.068Z,100453.18
2018-10-07T12:04:05.521Z,100457.28
2018-10-07T12:06:34.029Z,100461.38
2018-10-07T12:09:02.517Z,100466.30
2018-10-07T12:11:30.928Z,100461.95
2018-10-07T12:13:59.413Z,100470.98
2018-10-07T12:16:27.876Z,100465.25
2018-10-07T12:18:56.426Z,100466.34
2018-10-07T12:21:24.830Z,100465.50
2018-10-07T12:23:53.237Z,100476.14
2018-10-07T12:26:21.678Z,100469.06
2018-10-07T12:28:50.122Z,100473.39
2018-10-07T12:31:18.493Z,100476.12
2018-10-07T12:33:46.980Z,100477.47
2018-10-07T12:36:15.373Z,100479.94
2018-10-07T12:38:43.796Z,100482.70
2018-10-07T12:41:12.255Z,100479.91
2018-10-07T12:43:40.661Z,100486.36
2018-10-07T12:46:09.074Z,100485.54
2018-10-07T12:48:37.489Z,100481.73
2018-10-07T12:51:06.406Z,100477.73
2018-10-07T12:53:34.853Z,100486.36
2018-10-07T12:56:03.266Z,100492.08
2018-10-07T12:58:31.703Z,100494.52
2018-10-07T13:01:00.242Z,100490.16
2018-10-07T13:03:28.681Z,100479.31
2018-10-07T13:05:57.065Z,100485.66
2018-10-07T13:08:25.503Z,100486.28
2018-10-07T13:10:53.880Z,100487.44
2018-10-07T13:13:22.273Z,100488.21
2018-10-07T13:15:50.933Z,100487.87
2018-10-07T13:18:19.433Z,100481.91
2018-10-07T13:20:48.564Z,100484.20
2018-10-07T13:23:17.016Z,100490.46
2018-10-07T13:25:45.422Z,100478.73
2018-10-07T13:28:13.909Z,100476.73
2018-10-07T13:30:42.403Z,100472.16
2018-10-07T13:33:10.910Z,100470.30
2018-10-07T13:35:39.305Z,100477.15
2018-10-07T13:38:07.811Z,100469.52
2018-10-07T13:40:36.202Z,100464.41
2018-10-07T13:43:04.810Z,100466.20
2018-10-07T13:45:33.207Z,100463.27
2018-10-07T13:48:01.679Z,100476.16
2018-10-07T13:50:30.125Z,100482.22
2018-10-07T13:52:58.625Z,100481.91
2018-10-07T13:55:27.095Z,100487.63
2018-10-07T13:57:55.577Z,100478.24
2018-10-07T14:00:24.004Z,100475.67
2018-10-07T14:02:52.493Z,100462.66
2018-10-07T14:05:21.004Z,100471.88
2018-10-07T14:07:49.720Z,100468.01
2018-10-07T14:10:18.197Z,100472.77
2018-10-07T14:12:47.632Z,100469.30
2018-10-07T14:15:16.158Z,100479.73
2018-10-07T14:17:44.578Z,100479.69
2018-10-07T14:20:13.117Z,100472.90
2018-10-07T14:22:41.525Z,100473.38
2018-10-07T14:25:09.967Z,100466.63
2018-10-07T14:27:38.418Z,100465.09
2018-10-07T14:30:07.019Z,100477.67
2018-10-07T14:32:35.442Z,100480.91
2018-10-07T14:35:04.019Z,100483.02
2018-10-07T14:39:59.840Z,100475.66
2018-10-07T14:42:28.246Z,100474.27
2018-10-07T14:44:56.685Z,100471.79
2018-10-07T14:47:25.679Z,100472.66
2018-10-07T14:49:54.099Z,100475.18
2018-10-07T14:52:22.737Z,100484.77
2018-10-07T14:54:51.270Z,100484.70
2018-10-07T14:57:19.657Z,100482.52
2018-10-07T14:59:48.181Z,100488.88
2018-10-07T15:02:16.703Z,100479.48
2018-10-07T15:04:45.240Z,100473.70
2018-10-07T15:07:13.780Z,100479.79
2018-10-07T15:09:42.250Z,100477.47
2018-10-07T15:12:10.652Z,100475.49
2018-10-07T15:14:39.094Z,100472.81
2018-10-07T15:17:07.614Z,100476.39
2018-10-07T15:19:36.041Z,100472.72
2018-10-07T15:22:04.510Z,100473.95
2018-10-07T15:24:32.926Z,100482.86
2018-10-07T15:27:01.393Z,100481.16
2018-10-07T15:29:29.895Z,100487.25
2018-10-07T15:31:58.376Z,100498.49
2018-10-07T15:34:26.778Z,100493.45
2018-10-07T15:36:55.214Z,100500.17
2018-10-07T15:39:23.656Z,100497.61
2018-10-07T15:41:52.065Z,100500.90
2018-10-07T15:44:20.458Z,100504.80
2018-10-07T15:46:48.879Z,100501.53
2018-10-07T15:49:17.307Z,100499.77
2018-10-07T15:51:45.702Z,100498.17
2018-10-07T15:54:14.125Z,100501.02
2018-10-07T15:56:42.582Z,100503.41
2018-10-07T15:59:11.039Z,100505.14
2018-10-07T16:01:39.451Z,100510.97
2018-10-07T16:04:07.887Z,100511.55
2018-10-07T16:06:36.316Z,100512.98
2018-10-07T16:09:06.788Z,100519.41
2018-10-07T16:11:35.194Z,100521.31
2018-10-07T16:14:03.637Z,100523.84
2018-10-07T16:16:32.133Z,100526.34
2018-10-07T16:19:00.569Z,100521.21
2018-10-07T16:21:29.071Z,100519.56
2018-10-07T16:23:57.509Z,100518.73
2018-10-07T16:26:26.071Z,100527.77
2018-10-07T16:28:54.433Z,100529.41
2018-10-07T16:31:22.893Z,100532.97
2018-10-07T16:33:51.471Z,100529.70
2018-10-07T16:36:19.952Z,100533.78
2018-10-07T16:38:48.362Z,100534.59
2018-10-07T16:41:16.786Z,100538.13
2018-10-07T16:43:45.201Z,100535.93
2018-10-07T16:46:13.634Z,100546.55
2018-10-07T16:48:42.127Z,100541.61
2018-10-07T16:51:10.624Z,100547.30
2018-10-07T16:53:39.226Z,100546.97
2018-10-07T16:56:08.086Z,100544.19
2018-10-07T16:58:36.524Z,100547.16
2018-10-07T17:01:04.965Z,100559.67
2018-10-07T17:03:33.366Z,100552.55
2018-10-07T17:06:01.849Z,100562.09
2018-10-07T17:08:30.285Z,100562.86
2018-10-07T17:10:58.762Z,100566.09
2018-10-07T17:13:27.265Z,100568.80
2018-10-07T17:15:55.666Z,100575.30
2018-10-07T17:18:24.244Z,100573.87
2018-10-07T17:20:52.780Z,100571.61
2018-10-07T17:23:21.341Z,100575.09
2018-10-07T17:25:50.157Z,100572.27
2018-10-07T17:28:18.573Z,100567.54
2018-10-07T17:30:46.999Z,100573.92
2018-10-07T17:33:15.384Z,100577.09
2018-10-07T17:35:43.782Z,100580.17
2018-10-07T17:38:12.185Z,100583.75
2018-10-07T17:40:40.577Z,100596.03
2018-10-07T17:43:08.954Z,100598.81
2018-10-07T17:45:37.385Z,100599.25
2018-10-07T17:48:05.806Z,100599.81
2018-10-07T17:50:34.241Z,100602.45
2018-10-07T17:53:02.682Z,100606.16
2018-10-07T17:55:31.374Z,100605.83
2018-10-07T17:57:59.849Z,100609.34
2018-10-07T18:00:28.386Z,100618.55
2018-10-07T18:02:56.973Z,100619.57
2018-10-07T18:05:25.431Z,100617.05
2018-10-07T18:07:54.408Z,100604.21
2018-10-07T18:10:22.836Z,100609.19
2018-10-07T18:12:51.252Z,100608.83
2018-10-07T18:15:19.878Z,100621.92
2018-10-07T18:17:48.316Z,100620.77
2018-10-07T18:20:16.735Z,100619.53
2018-10-07T18:22:45.596Z,100626.33
2018-10-07T18:25:14.354Z,100626.83
2018-10-07T18:27:42.921Z,100628.64
2018-10-07T18:30:11.520Z,100629.23
2018-10-07T18:32:40.079Z,100634.41
2018-10-07T18:35:08.726Z,100645.02
2018-10-07T18:37:37.418Z,100644.67
2018-10-07T18:40:06.101Z,100644.03
2018-10-07T18:42:34.593Z,100650.82
2018-10-07T18:45:03.173Z,100647.55
2018-10-07T18:47:31.755Z,100653.20
2018-10-07T18:50:00.451Z,100654.52
2018-10-07T18:52:29.174Z,100657.80
2018-10-07T18:54:57.725Z,100664.67
2018-10-07T18:57:26.517Z,100656.31
2018-10-07T18:59:55.102Z,100655.44
2018-10-07T19:02:23.599Z,100652.15
2018-10-07T19:04:51.958Z,100654.51
2018-10-07T19:07:20.410Z,100656.39
2018-10-07T19:09:48.776Z,100654.08
2018-10-07T19:12:17.205Z,100652.10
2018-10-07T19:14:46.757Z,100653.95
2018-10-07T19:17:22.844Z,100659.06
2018-10-07T19:19:52.110Z,100660.28
2018-10-07T19:22:20.988Z,100658.94
2018-10-07T19:24:49.729Z,100658.83
2018-10-07T19:27:18.338Z,100663.48
2018-10-07T19:29:47.011Z,100669.33
2018-10-07T19:32:15.624Z,100670.94
2018-10-07T19:34:50.845Z,100671.69
2018-10-07T19:37:19.658Z,100679.50
2018-10-07T19:39:48.106Z,100675.38
2018-10-07T19:42:20.085Z,100679.92
2018-10-07T19:44:49.824Z,100674.22
2018-10-07T19:47:20.206Z,100679.23
2018-10-07T19:49:49.298Z,100679.38
2018-10-07T19:52:18.288Z,100679.83
2018-10-07T19:54:46.848Z,100678.75
2018-10-07T19:57:15.588Z,100676.34
2018-10-07T19:59:44.287Z,100684.95
2018-10-07T20:02:14.943Z,100682.09
2018-10-07T20:04:43.499Z,100677.63
2018-10-07T20:07:12.149Z,100682.54
2018-10-07T20:09:40.763Z,100680.28
2018-10-07T20:12:09.533Z,100674.69
2018-10-07T20:14:38.186Z,100671.81
2018-10-07T20:17:06.965Z,100670.27
2018-10-07T20:19:36.773Z,100668.33
2018-10-07T20:22:09.874Z,100667.25
2018-10-07T20:24:38.927Z,100664.42
2018-10-07T20:27:07.750Z,100664.49
2018-10-07T20:29:36.551Z,100666.41
2018-10-07T20:32:05.302Z,100659.19
2018-10-07T20:34:33.941Z,100668.44
2018-10-07T20:37:02.647Z,100669.55
2018-10-07T20:39:31.294Z,100666.31
2018-10-07T20:41:59.874Z,100662.62
2018-10-07T20:44:29.359Z,100668.97
2018-10-07T20:46:57.940Z,100676.38
2018-10-07T20:49:26.732Z,100672.75
2018-10-07T20:51:55.299Z,100671.84
2018-10-07T20:54:23.956Z,100673.42
2018-10-07T20:56:52.581Z,100668.25
2018-10-07T20:59:21.285Z,100666.66
2018-10-07T21:01:49.994Z,100669.50
2018-10-07T21:04:18.674Z,100673.07
2018-10-07T21:06:47.398Z,100668.97
2018-10-07T21:09:16.340Z,100676.55
2018-10-07T21:11:45.077Z,100674.34
2018-10-07T21:14:13.982Z,100672.44
2018-10-07T21:16:42.628Z,100671.50
2018-10-07T21:19:11.275Z,100667.00
2018-10-07T21:21:39.823Z,100666.97
2018-10-07T21:24:08.493Z,100667.73
2018-10-07T21:26:46.428Z,100662.05
2018-10-07T21:29:15.762Z,100662.59
2018-10-07T21:31:44.430Z,100654.11
2018-10-07T21:34:13.135Z,100664.53
2018-10-07T21:36:41.845Z,100659.61
2018-10-07T21:39:11.308Z,100657.47
2018-10-07T21:41:39.991Z,100653.80
2018-10-07T21:44:08.758Z,100661.51
2018-10-07T21:46:38.181Z,100649.61
2018-10-07T21:49:07.238Z,100650.09
2018-10-07T21:51:35.792Z,100654.61
2018-10-07T21:54:04.645Z,100656.03
2018-10-07T21:56:33.306Z,100656.79
2018-10-07T21:59:02.536Z,100659.22
2018-10-07T22:01:31.293Z,100654.63
2018-10-07T22:04:00.078Z,100653.97
2018-10-07T22:06:28.683Z,100655.42
2018-10-07T22:08:57.346Z,100655.23
2018-10-07T22:11:25.929Z,100651.03
2018-10-07T22:13:54.530Z,100658.03
2018-10-07T22:16:23.101Z,100649.86
2018-10-07T22:18:51.526Z,100650.22
2018-10-07T22:21:20.104Z,100652.23
2018-10-07T22:23:48.678Z,100643.61
2018-10-07T22:26:17.587Z,100652.25
2018-10-07T22:28:46.209Z,100652.59
2018-10-07T22:31:14.767Z,100656.20
2018-10-07T22:33:43.442Z,100659.34
2018-10-07T22:36:12.055Z,100656.25
2018-10-07T22:38:40.612Z,100654.30
2018-10-07T22:41:09.210Z,100664.16
2018-10-07T22:43:37.769Z,100661.13
2018-10-07T22:46:06.250Z,100660.11
2018-10-07T22:48:34.710Z,100667.73
2018-10-07T22:51:03.101Z,100666.63
2018-10-07T22:53:31.609Z,100668.97
2018-10-07T22:56:00.075Z,100662.50
2018-10-07T22:58:28.701Z,100663.92
2018-10-07T23:00:57.338Z,100665.07
2018-10-07T23:03:25.940Z,100661.54
2018-10-07T23:05:54.341Z,100661.66
2018-10-07T23:08:22.753Z,100658.23
2018-10-07T23:10:51.265Z,100654.52
2018-10-07T23:13:19.730Z,100654.36
2018-10-07T23:15:48.158Z,100666.52
2018-10-07T23:18:16.606Z,100663.53
2018-10-07T23:20:45.050Z,100659.04
2018-10-07T23:23:13.567Z,100656.93
2018-10-07T23:25:42.038Z,100657.95
2018-10-07T23:28:10.449Z,100655.77
2018-10-07T23:30:38.932Z,100652.95
2018-10-07T23:33:07.418Z,100656.39
2018-10-07T23:35:35.935Z,100649.93
2018-10-07T23:38:04.581Z,100649.33
2018-10-07T23:40:33.203Z,100652.70
2018-10-07T23:43:01.750Z,100657.34
2018-10-07T23:45:30.371Z,100659.00
2018-10-07T23:47:58.911Z,100657.73
2018-10-07T23:50:27.614Z,100664.69
2018-10-07T23:52:56.206Z,100673.09
2018-10-07T23:55:24.883Z,100663.94
2018-10-07T23:57:53.442Z,100676.38
